sensor_id;sensor_type;location;lat;lon;timestamp;P1;durP1;ratioP1;P2;durP2;ratioP2
15246;SDS011;7726;48.820;9.248;2022-12-15T00:01:05;32.63;;;20.37;;
15246;SDS011;7726;48.820;9.248;2022-12-15T00:03:49;27.77;;;19.17;;
15246;SDS011;7726;48.820;9.248;2022-12-15T00:06:34;29.90;;;19.13;;
15246;SDS011;7726;48.820;9.248;2022-12-15T00:09:18;27.83;;;18.63;;
15246;SDS011;7726;48.820;9.248;2022-12-15T00:12:03;28.30;;;19.33;;
15246;SDS011;7726;48.820;9.248;2022-12-15T00:14:49;27.77;;;18.33;;
15246;SDS011;7726;48.820;9.248;2022-12-15T00:17:34;28.10;;;18.33;;
15246;SDS011;7726;48.820;9.248;2022-12-15T00:20:19;30.97;;;19.20;;
15246;SDS011;7726;48.820;9.248;2022-12-15T00:23:07;29.17;;;19.03;;
15246;SDS011;7726;48.820;9.248;2022-12-15T00:25:51;29.53;;;19.50;;
15246;SDS011;7726;48.820;9.248;2022-12-15T00:28:36;30.07;;;19.13;;
15246;SDS011;7726;48.820;9.248;2022-12-15T00:31:22;29.70;;;17.63;;
15246;SDS011;7726;48.820;9.248;2022-12-15T00:34:07;29.87;;;19.37;;
15246;SDS011;7726;48.820;9.248;2022-12-15T00:36:51;29.57;;;18.07;;
15246;SDS011;7726;48.820;9.248;2022-12-15T00:39:36;33.17;;;19.50;;
15246;SDS011;7726;48.820;9.248;2022-12-15T00:42:04;27.63;;;18.50;;
15246;SDS011;7726;48.820;9.248;2022-12-15T00:44:31;26.57;;;17.40;;
15246;SDS011;7726;48.820;9.248;2022-12-15T00:46:59;31.97;;;18.37;;
15246;SDS011;7726;48.820;9.248;2022-12-15T00:49:26;31.33;;;18.17;;
15246;SDS011;7726;48.820;9.248;2022-12-15T00:52:12;29.63;;;18.83;;
15246;SDS011;7726;48.820;9.248;2022-12-15T00:54:57;34.53;;;20.43;;
15246;SDS011;7726;48.820;9.248;2022-12-15T00:57:41;29.97;;;18.70;;
15246;SDS011;7726;48.820;9.248;2022-12-15T01:00:26;31.07;;;19.67;;
15246;SDS011;7726;48.820;9.248;2022-12-15T01:03:13;30.27;;;18.90;;
15246;SDS011;7726;48.820;9.248;2022-12-15T01:05:58;28.13;;;18.43;;
15246;SDS011;7726;48.820;9.248;2022-12-15T01:08:43;30.30;;;18.57;;
15246;SDS011;7726;48.820;9.248;2022-12-15T01:11:28;29.57;;;19.30;;
15246;SDS011;7726;48.820;9.248;2022-12-15T01:14:13;28.87;;;18.83;;
15246;SDS011;7726;48.820;9.248;2022-12-15T01:16:57;29.47;;;18.97;;
15246;SDS011;7726;48.820;9.248;2022-12-15T01:19:43;29.63;;;19.07;;
15246;SDS011;7726;48.820;9.248;2022-12-15T01:22:28;28.77;;;17.90;;
15246;SDS011;7726;48.820;9.248;2022-12-15T01:24:55;30.63;;;20.17;;
15246;SDS011;7726;48.820;9.248;2022-12-15T01:27:22;28.87;;;18.37;;
15246;SDS011;7726;48.820;9.248;2022-12-15T01:29:49;29.23;;;18.17;;
15246;SDS011;7726;48.820;9.248;2022-12-15T01:32:16;31.37;;;18.63;;
15246;SDS011;7726;48.820;9.248;2022-12-15T01:34:45;32.80;;;19.83;;
15246;SDS011;7726;48.820;9.248;2022-12-15T01:37:12;29.13;;;19.57;;
15246;SDS011;7726;48.820;9.248;2022-12-15T01:39:39;27.57;;;17.47;;
15246;SDS011;7726;48.820;9.248;2022-12-15T01:42:23;31.73;;;19.57;;
15246;SDS011;7726;48.820;9.248;2022-12-15T01:44:51;31.10;;;19.13;;
15246;SDS011;7726;48.820;9.248;2022-12-15T01:47:19;30.70;;;18.90;;
15246;SDS011;7726;48.820;9.248;2022-12-15T01:49:49;29.20;;;19.50;;
15246;SDS011;7726;48.820;9.248;2022-12-15T01:52:17;30.67;;;19.63;;
15246;SDS011;7726;48.820;9.248;2022-12-15T01:54:45;35.20;;;19.10;;
15246;SDS011;7726;48.820;9.248;2022-12-15T01:57:14;33.40;;;19.70;;
15246;SDS011;7726;48.820;9.248;2022-12-15T01:59:44;31.47;;;18.63;;
15246;SDS011;7726;48.820;9.248;2022-12-15T02:02:15;31.47;;;18.80;;
15246;SDS011;7726;48.820;9.248;2022-12-15T02:04:43;33.00;;;19.30;;
15246;SDS011;7726;48.820;9.248;2022-12-15T02:07:13;31.97;;;19.47;;
15246;SDS011;7726;48.820;9.248;2022-12-15T02:09:40;27.87;;;17.03;;
15246;SDS011;7726;48.820;9.248;2022-12-15T02:12:09;33.00;;;20.27;;
15246;SDS011;7726;48.820;9.248;2022-12-15T02:14:44;29.03;;;18.07;;
15246;SDS011;7726;48.820;9.248;2022-12-15T02:17:14;31.60;;;19.63;;
15246;SDS011;7726;48.820;9.248;2022-12-15T02:19:47;34.80;;;19.33;;
15246;SDS011;7726;48.820;9.248;2022-12-15T02:22:20;29.20;;;18.97;;
15246;SDS011;7726;48.820;9.248;2022-12-15T02:24:57;33.87;;;19.80;;
15246;SDS011;7726;48.820;9.248;2022-12-15T02:27:32;27.53;;;17.07;;
15246;SDS011;7726;48.820;9.248;2022-12-15T02:30:19;32.17;;;19.67;;
15246;SDS011;7726;48.820;9.248;2022-12-15T02:32:49;30.13;;;18.87;;
15246;SDS011;7726;48.820;9.248;2022-12-15T02:35:20;31.03;;;17.93;;
15246;SDS011;7726;48.820;9.248;2022-12-15T02:37:50;28.87;;;18.33;;
15246;SDS011;7726;48.820;9.248;2022-12-15T02:40:17;32.27;;;18.40;;
15246;SDS011;7726;48.820;9.248;2022-12-15T02:42:45;29.00;;;18.50;;
15246;SDS011;7726;48.820;9.248;2022-12-15T02:45:14;29.23;;;17.57;;
15246;SDS011;7726;48.820;9.248;2022-12-15T02:47:43;31.77;;;19.33;;
15246;SDS011;7726;48.820;9.248;2022-12-15T02:50:18;33.10;;;19.47;;
15246;SDS011;7726;48.820;9.248;2022-12-15T02:52:52;34.30;;;18.10;;
15246;SDS011;7726;48.820;9.248;2022-12-15T02:55:23;32.53;;;19.70;;
15246;SDS011;7726;48.820;9.248;2022-12-15T02:57:52;29.43;;;17.57;;
15246;SDS011;7726;48.820;9.248;2022-12-15T03:00:20;30.33;;;18.63;;
15246;SDS011;7726;48.820;9.248;2022-12-15T03:02:50;32.93;;;18.80;;
15246;SDS011;7726;48.820;9.248;2022-12-15T03:05:18;33.30;;;18.07;;
15246;SDS011;7726;48.820;9.248;2022-12-15T03:07:47;36.53;;;20.20;;
15246;SDS011;7726;48.820;9.248;2022-12-15T03:10:15;30.63;;;19.83;;
15246;SDS011;7726;48.820;9.248;2022-12-15T03:12:42;31.70;;;19.10;;
15246;SDS011;7726;48.820;9.248;2022-12-15T03:15:09;31.00;;;19.07;;
15246;SDS011;7726;48.820;9.248;2022-12-15T03:17:36;32.27;;;18.70;;
15246;SDS011;7726;48.820;9.248;2022-12-15T03:20:05;32.13;;;20.07;;
15246;SDS011;7726;48.820;9.248;2022-12-15T03:22:33;28.97;;;18.00;;
15246;SDS011;7726;48.820;9.248;2022-12-15T03:25:00;36.83;;;20.13;;
15246;SDS011;7726;48.820;9.248;2022-12-15T03:27:27;32.13;;;19.03;;
15246;SDS011;7726;48.820;9.248;2022-12-15T03:29:54;31.03;;;18.33;;
15246;SDS011;7726;48.820;9.248;2022-12-15T03:32:22;32.37;;;19.57;;
15246;SDS011;7726;48.820;9.248;2022-12-15T03:34:49;33.23;;;19.23;;
15246;SDS011;7726;48.820;9.248;2022-12-15T03:37:17;32.50;;;19.50;;
15246;SDS011;7726;48.820;9.248;2022-12-15T03:39:44;35.70;;;20.40;;
15246;SDS011;7726;48.820;9.248;2022-12-15T03:42:12;30.80;;;19.40;;
15246;SDS011;7726;48.820;9.248;2022-12-15T03:44:59;31.73;;;19.03;;
15246;SDS011;7726;48.820;9.248;2022-12-15T03:47:26;33.30;;;19.53;;
15246;SDS011;7726;48.820;9.248;2022-12-15T03:49:53;33.23;;;19.53;;
15246;SDS011;7726;48.820;9.248;2022-12-15T03:52:21;33.97;;;20.17;;
15246;SDS011;7726;48.820;9.248;2022-12-15T03:54:48;30.57;;;19.10;;
15246;SDS011;7726;48.820;9.248;2022-12-15T03:57:15;34.53;;;20.57;;
15246;SDS011;7726;48.820;9.248;2022-12-15T03:59:42;34.73;;;20.23;;
15246;SDS011;7726;48.820;9.248;2022-12-15T04:02:09;32.77;;;19.63;;
15246;SDS011;7726;48.820;9.248;2022-12-15T04:04:37;31.30;;;19.60;;
15246;SDS011;7726;48.820;9.248;2022-12-15T04:07:04;31.00;;;18.60;;
15246;SDS011;7726;48.820;9.248;2022-12-15T04:09:32;30.60;;;19.47;;
15246;SDS011;7726;48.820;9.248;2022-12-15T04:11:59;33.10;;;19.37;;
15246;SDS011;7726;48.820;9.248;2022-12-15T04:14:27;32.80;;;19.83;;
15246;SDS011;7726;48.820;9.248;2022-12-15T04:16:54;29.93;;;19.27;;
15246;SDS011;7726;48.820;9.248;2022-12-15T04:19:22;32.47;;;19.70;;
15246;SDS011;7726;48.820;9.248;2022-12-15T04:22:07;33.80;;;19.70;;
15246;SDS011;7726;48.820;9.248;2022-12-15T04:24:35;31.23;;;20.57;;
15246;SDS011;7726;48.820;9.248;2022-12-15T04:27:20;31.27;;;18.77;;
15246;SDS011;7726;48.820;9.248;2022-12-15T04:30:05;33.97;;;19.83;;
15246;SDS011;7726;48.820;9.248;2022-12-15T04:32:50;30.73;;;18.60;;
15246;SDS011;7726;48.820;9.248;2022-12-15T04:35:34;29.17;;;19.33;;
15246;SDS011;7726;48.820;9.248;2022-12-15T04:38:19;32.73;;;19.73;;
15246;SDS011;7726;48.820;9.248;2022-12-15T04:41:05;29.03;;;19.10;;
15246;SDS011;7726;48.820;9.248;2022-12-15T04:43:50;32.87;;;18.03;;
15246;SDS011;7726;48.820;9.248;2022-12-15T04:46:34;28.53;;;17.43;;
15246;SDS011;7726;48.820;9.248;2022-12-15T04:49:19;32.03;;;18.30;;
15246;SDS011;7726;48.820;9.248;2022-12-15T04:52:04;31.83;;;18.57;;
15246;SDS011;7726;48.820;9.248;2022-12-15T04:54:48;34.40;;;19.43;;
15246;SDS011;7726;48.820;9.248;2022-12-15T04:57:35;31.07;;;19.83;;
15246;SDS011;7726;48.820;9.248;2022-12-15T05:00:19;31.00;;;18.57;;
15246;SDS011;7726;48.820;9.248;2022-12-15T05:03:04;29.23;;;18.03;;
15246;SDS011;7726;48.820;9.248;2022-12-15T05:05:49;35.00;;;20.10;;
15246;SDS011;7726;48.820;9.248;2022-12-15T05:08:34;28.67;;;18.27;;
15246;SDS011;7726;48.820;9.248;2022-12-15T05:11:18;32.13;;;19.07;;
15246;SDS011;7726;48.820;9.248;2022-12-15T05:14:04;30.67;;;18.93;;
15246;SDS011;7726;48.820;9.248;2022-12-15T05:16:49;32.33;;;19.07;;
15246;SDS011;7726;48.820;9.248;2022-12-15T05:19:33;34.83;;;19.90;;
15246;SDS011;7726;48.820;9.248;2022-12-15T05:22:18;28.20;;;17.90;;
15246;SDS011;7726;48.820;9.248;2022-12-15T05:25:02;30.57;;;18.27;;
15246;SDS011;7726;48.820;9.248;2022-12-15T05:27:47;32.07;;;19.13;;
15246;SDS011;7726;48.820;9.248;2022-12-15T05:30:33;30.13;;;18.03;;
15246;SDS011;7726;48.820;9.248;2022-12-15T05:33:18;27.83;;;17.67;;
15246;SDS011;7726;48.820;9.248;2022-12-15T05:35:45;31.13;;;18.87;;
15246;SDS011;7726;48.820;9.248;2022-12-15T05:38:12;31.80;;;17.57;;
15246;SDS011;7726;48.820;9.248;2022-12-15T05:40:39;30.63;;;18.70;;
15246;SDS011;7726;48.820;9.248;2022-12-15T05:43:06;31.27;;;18.23;;
15246;SDS011;7726;48.820;9.248;2022-12-15T05:45:34;31.93;;;17.97;;
15246;SDS011;7726;48.820;9.248;2022-12-15T05:48:02;29.93;;;18.03;;
15246;SDS011;7726;48.820;9.248;2022-12-15T05:50:29;34.03;;;19.60;;
15246;SDS011;7726;48.820;9.248;2022-12-15T05:52:56;32.33;;;19.77;;
15246;SDS011;7726;48.820;9.248;2022-12-15T05:55:23;29.67;;;18.53;;
15246;SDS011;7726;48.820;9.248;2022-12-15T05:57:50;33.20;;;18.83;;
15246;SDS011;7726;48.820;9.248;2022-12-15T06:00:18;30.67;;;18.10;;
15246;SDS011;7726;48.820;9.248;2022-12-15T06:02:46;32.30;;;18.90;;
15246;SDS011;7726;48.820;9.248;2022-12-15T06:05:14;32.97;;;19.90;;
15246;SDS011;7726;48.820;9.248;2022-12-15T06:07:41;30.73;;;18.17;;
15246;SDS011;7726;48.820;9.248;2022-12-15T06:10:08;30.57;;;19.40;;
15246;SDS011;7726;48.820;9.248;2022-12-15T06:12:35;31.47;;;19.03;;
15246;SDS011;7726;48.820;9.248;2022-12-15T06:15:03;32.73;;;19.73;;
15246;SDS011;7726;48.820;9.248;2022-12-15T06:17:30;32.07;;;19.17;;
15246;SDS011;7726;48.820;9.248;2022-12-15T06:19:59;29.27;;;18.97;;
15246;SDS011;7726;48.820;9.248;2022-12-15T06:22:27;31.10;;;18.73;;
15246;SDS011;7726;48.820;9.248;2022-12-15T06:24:54;29.03;;;18.90;;
15246;SDS011;7726;48.820;9.248;2022-12-15T06:27:21;30.03;;;18.87;;
15246;SDS011;7726;48.820;9.248;2022-12-15T06:29:48;31.43;;;19.00;;
15246;SDS011;7726;48.820;9.248;2022-12-15T06:32:15;33.53;;;20.50;;
15246;SDS011;7726;48.820;9.248;2022-12-15T06:34:42;32.67;;;19.10;;
15246;SDS011;7726;48.820;9.248;2022-12-15T06:37:11;31.30;;;19.50;;
15246;SDS011;7726;48.820;9.248;2022-12-15T06:39:38;30.93;;;19.27;;
15246;SDS011;7726;48.820;9.248;2022-12-15T06:42:05;35.30;;;18.57;;
15246;SDS011;7726;48.820;9.248;2022-12-15T06:44:32;28.90;;;18.83;;
15246;SDS011;7726;48.820;9.248;2022-12-15T06:46:59;33.43;;;19.17;;
15246;SDS011;7726;48.820;9.248;2022-12-15T06:49:26;32.10;;;17.90;;
15246;SDS011;7726;48.820;9.248;2022-12-15T06:51:53;30.13;;;18.47;;
15246;SDS011;7726;48.820;9.248;2022-12-15T06:54:22;33.67;;;19.23;;
15246;SDS011;7726;48.820;9.248;2022-12-15T06:56:50;32.43;;;19.00;;
15246;SDS011;7726;48.820;9.248;2022-12-15T06:59:17;33.40;;;18.70;;
15246;SDS011;7726;48.820;9.248;2022-12-15T07:01:44;32.83;;;18.90;;
15246;SDS011;7726;48.820;9.248;2022-12-15T07:04:11;29.77;;;17.73;;
15246;SDS011;7726;48.820;9.248;2022-12-15T07:06:38;32.03;;;17.47;;
15246;SDS011;7726;48.820;9.248;2022-12-15T07:09:07;31.70;;;18.00;;
15246;SDS011;7726;48.820;9.248;2022-12-15T07:11:35;29.77;;;19.27;;
15246;SDS011;7726;48.820;9.248;2022-12-15T07:14:03;31.87;;;18.00;;
15246;SDS011;7726;48.820;9.248;2022-12-15T07:16:30;34.40;;;19.57;;
15246;SDS011;7726;48.820;9.248;2022-12-15T07:18:57;28.60;;;18.83;;
15246;SDS011;7726;48.820;9.248;2022-12-15T07:21:24;30.53;;;18.97;;
15246;SDS011;7726;48.820;9.248;2022-12-15T07:23:51;31.13;;;18.73;;
15246;SDS011;7726;48.820;9.248;2022-12-15T07:26:18;32.23;;;18.83;;
15246;SDS011;7726;48.820;9.248;2022-12-15T07:28:46;31.20;;;18.77;;
15246;SDS011;7726;48.820;9.248;2022-12-15T07:31:14;27.43;;;17.83;;
15246;SDS011;7726;48.820;9.248;2022-12-15T07:33:41;33.97;;;18.90;;
15246;SDS011;7726;48.820;9.248;2022-12-15T07:36:08;32.97;;;18.30;;
15246;SDS011;7726;48.820;9.248;2022-12-15T07:38:36;31.33;;;18.93;;
15246;SDS011;7726;48.820;9.248;2022-12-15T07:41:03;32.10;;;19.33;;
15246;SDS011;7726;48.820;9.248;2022-12-15T07:43:31;31.67;;;19.27;;
15246;SDS011;7726;48.820;9.248;2022-12-15T07:46:00;31.60;;;17.17;;
15246;SDS011;7726;48.820;9.248;2022-12-15T07:48:27;30.03;;;17.70;;
15246;SDS011;7726;48.820;9.248;2022-12-15T07:50:54;29.73;;;17.07;;
15246;SDS011;7726;48.820;9.248;2022-12-15T07:53:23;29.63;;;17.87;;
15246;SDS011;7726;48.820;9.248;2022-12-15T07:55:54;29.43;;;16.50;;
15246;SDS011;7726;48.820;9.248;2022-12-15T07:58:22;30.47;;;19.03;;
15246;SDS011;7726;48.820;9.248;2022-12-15T08:00:50;31.90;;;18.83;;
15246;SDS011;7726;48.820;9.248;2022-12-15T08:03:18;34.20;;;19.30;;
15246;SDS011;7726;48.820;9.248;2022-12-15T08:05:46;31.80;;;18.73;;
15246;SDS011;7726;48.820;9.248;2022-12-15T08:08:13;32.47;;;19.60;;
15246;SDS011;7726;48.820;9.248;2022-12-15T08:10:41;31.80;;;18.83;;
15246;SDS011;7726;48.820;9.248;2022-12-15T08:13:08;32.13;;;18.13;;
15246;SDS011;7726;48.820;9.248;2022-12-15T08:15:35;30.97;;;18.23;;
15246;SDS011;7726;48.820;9.248;2022-12-15T08:18:03;32.37;;;19.97;;
15246;SDS011;7726;48.820;9.248;2022-12-15T08:20:32;32.47;;;19.47;;
15246;SDS011;7726;48.820;9.248;2022-12-15T08:22:59;32.60;;;18.43;;
15246;SDS011;7726;48.820;9.248;2022-12-15T08:25:26;31.73;;;19.50;;
15246;SDS011;7726;48.820;9.248;2022-12-15T08:27:54;36.47;;;20.07;;
15246;SDS011;7726;48.820;9.248;2022-12-15T08:30:22;30.17;;;18.00;;
15246;SDS011;7726;48.820;9.248;2022-12-15T08:32:49;31.17;;;18.13;;
15246;SDS011;7726;48.820;9.248;2022-12-15T08:35:16;36.17;;;19.53;;
15246;SDS011;7726;48.820;9.248;2022-12-15T08:37:45;30.70;;;18.00;;
15246;SDS011;7726;48.820;9.248;2022-12-15T08:40:12;33.53;;;20.43;;
15246;SDS011;7726;48.820;9.248;2022-12-15T08:42:39;35.87;;;19.87;;
15246;SDS011;7726;48.820;9.248;2022-12-15T08:45:06;32.77;;;18.00;;
15246;SDS011;7726;48.820;9.248;2022-12-15T08:47:34;32.40;;;19.27;;
15246;SDS011;7726;48.820;9.248;2022-12-15T08:50:01;30.77;;;18.80;;
15246;SDS011;7726;48.820;9.248;2022-12-15T08:52:28;32.27;;;19.20;;
15246;SDS011;7726;48.820;9.248;2022-12-15T08:54:56;35.10;;;19.50;;
15246;SDS011;7726;48.820;9.248;2022-12-15T08:57:23;35.20;;;18.60;;
15246;SDS011;7726;48.820;9.248;2022-12-15T08:59:51;30.83;;;19.10;;
15246;SDS011;7726;48.820;9.248;2022-12-15T09:02:18;34.60;;;19.80;;
15246;SDS011;7726;48.820;9.248;2022-12-15T09:04:45;31.50;;;18.43;;
15246;SDS011;7726;48.820;9.248;2022-12-15T09:07:14;32.73;;;19.23;;
15246;SDS011;7726;48.820;9.248;2022-12-15T09:09:41;31.27;;;18.20;;
15246;SDS011;7726;48.820;9.248;2022-12-15T09:12:11;34.87;;;19.23;;
15246;SDS011;7726;48.820;9.248;2022-12-15T09:14:38;30.57;;;19.33;;
15246;SDS011;7726;48.820;9.248;2022-12-15T09:17:05;33.67;;;19.53;;
15246;SDS011;7726;48.820;9.248;2022-12-15T09:19:32;32.40;;;19.63;;
15246;SDS011;7726;48.820;9.248;2022-12-15T09:22:00;31.60;;;18.40;;
15246;SDS011;7726;48.820;9.248;2022-12-15T09:24:29;25.07;;;14.80;;
15246;SDS011;7726;48.820;9.248;2022-12-15T09:26:56;31.67;;;18.67;;
15246;SDS011;7726;48.820;9.248;2022-12-15T09:29:24;35.43;;;19.63;;
15246;SDS011;7726;48.820;9.248;2022-12-15T09:31:52;30.67;;;17.13;;
15246;SDS011;7726;48.820;9.248;2022-12-15T09:34:19;33.20;;;18.90;;
15246;SDS011;7726;48.820;9.248;2022-12-15T09:36:46;30.73;;;15.90;;
15246;SDS011;7726;48.820;9.248;2022-12-15T09:39:13;28.77;;;18.27;;
15246;SDS011;7726;48.820;9.248;2022-12-15T09:41:41;32.70;;;18.23;;
15246;SDS011;7726;48.820;9.248;2022-12-15T09:44:14;32.37;;;17.93;;
15246;SDS011;7726;48.820;9.248;2022-12-15T09:46:46;29.70;;;16.93;;
15246;SDS011;7726;48.820;9.248;2022-12-15T09:49:22;32.77;;;19.60;;
15246;SDS011;7726;48.820;9.248;2022-12-15T09:51:52;27.03;;;15.93;;
15246;SDS011;7726;48.820;9.248;2022-12-15T09:54:21;22.57;;;15.00;;
15246;SDS011;7726;48.820;9.248;2022-12-15T09:56:54;27.40;;;17.63;;
15246;SDS011;7726;48.820;9.248;2022-12-15T09:59:25;33.23;;;18.07;;
15246;SDS011;7726;48.820;9.248;2022-12-15T10:01:58;29.10;;;17.57;;
15246;SDS011;7726;48.820;9.248;2022-12-15T10:04:30;30.03;;;18.37;;
15246;SDS011;7726;48.820;9.248;2022-12-15T10:07:00;30.23;;;18.70;;
15246;SDS011;7726;48.820;9.248;2022-12-15T10:09:32;27.13;;;17.83;;
15246;SDS011;7726;48.820;9.248;2022-12-15T10:12:00;37.03;;;19.70;;
15246;SDS011;7726;48.820;9.248;2022-12-15T10:14:29;31.77;;;19.57;;
15246;SDS011;7726;48.820;9.248;2022-12-15T10:17:00;36.90;;;19.63;;
15246;SDS011;7726;48.820;9.248;2022-12-15T10:19:30;29.27;;;18.20;;
15246;SDS011;7726;48.820;9.248;2022-12-15T10:21:59;27.60;;;16.57;;
15246;SDS011;7726;48.820;9.248;2022-12-15T10:24:28;29.57;;;18.50;;
15246;SDS011;7726;48.820;9.248;2022-12-15T10:26:58;29.63;;;18.07;;
15246;SDS011;7726;48.820;9.248;2022-12-15T10:29:29;28.03;;;18.13;;
15246;SDS011;7726;48.820;9.248;2022-12-15T10:31:58;31.00;;;18.37;;
15246;SDS011;7726;48.820;9.248;2022-12-15T10:34:28;31.03;;;19.50;;
15246;SDS011;7726;48.820;9.248;2022-12-15T10:36:55;27.70;;;16.23;;
15246;SDS011;7726;48.820;9.248;2022-12-15T10:39:23;28.20;;;17.03;;
15246;SDS011;7726;48.820;9.248;2022-12-15T10:42:08;27.93;;;15.87;;
15246;SDS011;7726;48.820;9.248;2022-12-15T10:44:37;30.67;;;18.30;;
15246;SDS011;7726;48.820;9.248;2022-12-15T10:47:07;30.80;;;18.30;;
15246;SDS011;7726;48.820;9.248;2022-12-15T10:49:36;26.03;;;15.80;;
15246;SDS011;7726;48.820;9.248;2022-12-15T10:52:03;30.20;;;16.03;;
15246;SDS011;7726;48.820;9.248;2022-12-15T10:54:31;32.23;;;19.30;;
15246;SDS011;7726;48.820;9.248;2022-12-15T10:57:08;32.73;;;18.80;;
15246;SDS011;7726;48.820;9.248;2022-12-15T10:59:40;30.53;;;18.17;;
15246;SDS011;7726;48.820;9.248;2022-12-15T11:04:55;30.10;;;17.37;;
15246;SDS011;7726;48.820;9.248;2022-12-15T11:07:23;29.33;;;16.67;;
15246;SDS011;7726;48.820;9.248;2022-12-15T11:09:56;27.20;;;18.13;;
15246;SDS011;7726;48.820;9.248;2022-12-15T11:12:25;27.60;;;17.23;;
15246;SDS011;7726;48.820;9.248;2022-12-15T11:15:31;27.00;;;18.40;;
15246;SDS011;7726;48.820;9.248;2022-12-15T11:18:00;28.47;;;18.53;;
15246;SDS011;7726;48.820;9.248;2022-12-15T11:20:31;29.77;;;18.90;;
15246;SDS011;7726;48.820;9.248;2022-12-15T11:23:01;29.83;;;18.10;;
15246;SDS011;7726;48.820;9.248;2022-12-15T11:25:32;29.10;;;19.27;;
15246;SDS011;7726;48.820;9.248;2022-12-15T11:28:03;30.37;;;17.13;;
15246;SDS011;7726;48.820;9.248;2022-12-15T11:30:32;31.47;;;18.20;;
15246;SDS011;7726;48.820;9.248;2022-12-15T11:33:01;27.50;;;17.37;;
15246;SDS011;7726;48.820;9.248;2022-12-15T11:35:37;28.17;;;17.83;;
15246;SDS011;7726;48.820;9.248;2022-12-15T11:38:12;27.57;;;17.33;;
15246;SDS011;7726;48.820;9.248;2022-12-15T11:40:41;33.53;;;18.63;;
15246;SDS011;7726;48.820;9.248;2022-12-15T11:43:16;29.97;;;18.70;;
15246;SDS011;7726;48.820;9.248;2022-12-15T11:45:49;27.10;;;17.23;;
15246;SDS011;7726;48.820;9.248;2022-12-15T11:48:25;30.47;;;18.20;;
15246;SDS011;7726;48.820;9.248;2022-12-15T11:50:55;28.33;;;17.07;;
15246;SDS011;7726;48.820;9.248;2022-12-15T11:56:21;31.07;;;17.60;;
15246;SDS011;7726;48.820;9.248;2022-12-15T12:01:44;29.40;;;17.33;;
15246;SDS011;7726;48.820;9.248;2022-12-15T12:04:15;31.00;;;18.60;;
15246;SDS011;7726;48.820;9.248;2022-12-15T12:06:47;27.20;;;15.73;;
15246;SDS011;7726;48.820;9.248;2022-12-15T12:09:21;25.67;;;16.77;;
15246;SDS011;7726;48.820;9.248;2022-12-15T12:11:53;27.47;;;15.67;;
15246;SDS011;7726;48.820;9.248;2022-12-15T12:14:25;31.40;;;17.70;;
15246;SDS011;7726;48.820;9.248;2022-12-15T12:16:59;21.63;;;13.33;;
15246;SDS011;7726;48.820;9.248;2022-12-15T12:19:29;27.33;;;16.63;;
15246;SDS011;7726;48.820;9.248;2022-12-15T12:21:58;27.47;;;15.97;;
15246;SDS011;7726;48.820;9.248;2022-12-15T12:24:28;24.10;;;15.33;;
15246;SDS011;7726;48.820;9.248;2022-12-15T12:26:58;21.73;;;12.87;;
15246;SDS011;7726;48.820;9.248;2022-12-15T12:29:27;23.23;;;14.87;;
15246;SDS011;7726;48.820;9.248;2022-12-15T12:31:57;25.37;;;16.03;;
15246;SDS011;7726;48.820;9.248;2022-12-15T12:34:28;23.93;;;14.70;;
15246;SDS011;7726;48.820;9.248;2022-12-15T12:37:00;26.60;;;17.07;;
15246;SDS011;7726;48.820;9.248;2022-12-15T12:39:30;27.73;;;15.90;;
15246;SDS011;7726;48.820;9.248;2022-12-15T12:42:01;25.80;;;15.60;;
15246;SDS011;7726;48.820;9.248;2022-12-15T12:44:31;27.63;;;17.17;;
15246;SDS011;7726;48.820;9.248;2022-12-15T12:47:03;24.80;;;15.63;;
15246;SDS011;7726;48.820;9.248;2022-12-15T12:49:32;28.47;;;15.07;;
15246;SDS011;7726;48.820;9.248;2022-12-15T12:52:03;25.57;;;15.40;;
15246;SDS011;7726;48.820;9.248;2022-12-15T12:54:40;22.67;;;14.23;;
15246;SDS011;7726;48.820;9.248;2022-12-15T12:57:29;23.27;;;14.77;;
15246;SDS011;7726;48.820;9.248;2022-12-15T12:59:59;24.23;;;15.37;;
15246;SDS011;7726;48.820;9.248;2022-12-15T13:05:23;24.43;;;16.50;;
15246;SDS011;7726;48.820;9.248;2022-12-15T13:07:52;26.07;;;15.33;;
15246;SDS011;7726;48.820;9.248;2022-12-15T13:10:20;28.30;;;17.00;;
15246;SDS011;7726;48.820;9.248;2022-12-15T13:12:49;26.83;;;15.50;;
15246;SDS011;7726;48.820;9.248;2022-12-15T13:15:18;26.43;;;13.50;;
15246;SDS011;7726;48.820;9.248;2022-12-15T13:17:47;30.90;;;17.33;;
15246;SDS011;7726;48.820;9.248;2022-12-15T13:20:21;30.33;;;18.70;;
15246;SDS011;7726;48.820;9.248;2022-12-15T13:22:48;27.93;;;16.30;;
15246;SDS011;7726;48.820;9.248;2022-12-15T13:25:26;27.43;;;16.27;;
15246;SDS011;7726;48.820;9.248;2022-12-15T13:27:55;28.07;;;15.53;;
15246;SDS011;7726;48.820;9.248;2022-12-15T13:30:24;25.13;;;15.63;;
15246;SDS011;7726;48.820;9.248;2022-12-15T13:32:52;11.00;;;6.57;;
15246;SDS011;7726;48.820;9.248;2022-12-15T13:35:21;27.83;;;15.57;;
15246;SDS011;7726;48.820;9.248;2022-12-15T13:37:50;24.77;;;15.10;;
15246;SDS011;7726;48.820;9.248;2022-12-15T13:40:25;26.20;;;15.67;;
15246;SDS011;7726;48.820;9.248;2022-12-15T13:42:59;25.57;;;15.77;;
15246;SDS011;7726;48.820;9.248;2022-12-15T13:45:41;27.83;;;17.10;;
15246;SDS011;7726;48.820;9.248;2022-12-15T13:51:21;24.20;;;15.07;;
15246;SDS011;7726;48.820;9.248;2022-12-15T13:53:50;27.50;;;15.63;;
15246;SDS011;7726;48.820;9.248;2022-12-15T13:59:11;30.43;;;17.90;;
15246;SDS011;7726;48.820;9.248;2022-12-15T14:01:46;30.13;;;17.77;;
15246;SDS011;7726;48.820;9.248;2022-12-15T14:04:13;26.53;;;16.40;;
15246;SDS011;7726;48.820;9.248;2022-12-15T14:06:44;23.60;;;15.10;;
15246;SDS011;7726;48.820;9.248;2022-12-15T14:09:12;23.37;;;15.13;;
15246;SDS011;7726;48.820;9.248;2022-12-15T14:11:40;22.97;;;14.63;;
15246;SDS011;7726;48.820;9.248;2022-12-15T14:14:12;26.90;;;15.97;;
15246;SDS011;7726;48.820;9.248;2022-12-15T14:16:42;28.23;;;15.90;;
15246;SDS011;7726;48.820;9.248;2022-12-15T14:19:11;27.30;;;17.07;;
15246;SDS011;7726;48.820;9.248;2022-12-15T14:21:39;26.70;;;16.10;;
15246;SDS011;7726;48.820;9.248;2022-12-15T14:24:14;26.17;;;15.60;;
15246;SDS011;7726;48.820;9.248;2022-12-15T14:26:42;25.87;;;15.23;;
15246;SDS011;7726;48.820;9.248;2022-12-15T14:29:09;27.23;;;16.17;;
15246;SDS011;7726;48.820;9.248;2022-12-15T14:31:38;25.67;;;15.50;;
15246;SDS011;7726;48.820;9.248;2022-12-15T14:34:06;29.37;;;16.67;;
15246;SDS011;7726;48.820;9.248;2022-12-15T14:36:34;23.10;;;14.90;;
15246;SDS011;7726;48.820;9.248;2022-12-15T14:39:02;27.40;;;16.07;;
15246;SDS011;7726;48.820;9.248;2022-12-15T14:41:30;27.87;;;16.53;;
15246;SDS011;7726;48.820;9.248;2022-12-15T14:43:59;27.83;;;16.43;;
15246;SDS011;7726;48.820;9.248;2022-12-15T14:46:27;28.70;;;17.87;;
15246;SDS011;7726;48.820;9.248;2022-12-15T14:48:57;28.40;;;17.27;;
15246;SDS011;7726;48.820;9.248;2022-12-15T14:51:25;25.50;;;15.97;;
15246;SDS011;7726;48.820;9.248;2022-12-15T14:53:54;28.97;;;16.63;;
15246;SDS011;7726;48.820;9.248;2022-12-15T14:56:23;27.83;;;17.17;;
15246;SDS011;7726;48.820;9.248;2022-12-15T14:58:54;32.40;;;16.63;;
15246;SDS011;7726;48.820;9.248;2022-12-15T15:01:23;26.20;;;14.97;;
15246;SDS011;7726;48.820;9.248;2022-12-15T15:03:59;24.50;;;14.27;;
15246;SDS011;7726;48.820;9.248;2022-12-15T15:06:28;23.67;;;14.87;;
15246;SDS011;7726;48.820;9.248;2022-12-15T15:09:02;25.37;;;14.50;;
15246;SDS011;7726;48.820;9.248;2022-12-15T15:11:30;27.40;;;15.40;;
15246;SDS011;7726;48.820;9.248;2022-12-15T15:13:58;21.40;;;11.87;;
15246;SDS011;7726;48.820;9.248;2022-12-15T15:16:29;24.83;;;14.70;;